Aviation Digital Data Service (ADDS)

Output produced by METARs form (0658 UTC 24 March 2019)
found at http://www.aviationweather.gov/metar/data/
 
SCFA 240600Z 02003KT CAVOK 18/12 Q1016 NOSIG
TAF SCFA 240415Z 2406/2506 10004KT 9999 SCT015 TN16/2406Z TX21/2418Z 
     BECMG 2408/2410 CAVOK 
     BECMG 2414/2416 20014KT FEW020 
     BECMG 2502/2504 18004KT
       
SCAR 240600Z 03003KT CAVOK 19/13 Q1015
TAF SCAR 240414Z 2406/2506 06004KT CAVOK TN18/2406Z TX24/2417Z 
     BECMG 2414/2416 21010KT 
     BECMG 2504/2506 07004KT
       
SCBA 240600Z AUTO 31012KT CAVOK 08/05 Q1022
TAF SCBA 240410Z 2406/2506 30008KT CAVOK TN05/2410Z TX17/2420Z 
     BECMG 2411/2413 31015KT 9999 SCT035 
     BECMG 2416/2418 CAVOK 
     BECMG 2421/2423 31008KT 
     BECMG 2502/2504 28003KT
       
SCCF 240600Z 10012KT CAVOK 08/M03 Q1028
TAF SCCF 240415Z 2406/2506 11016KT CAVOK TN07/2406Z TX24/2417Z 
     BECMG 2414/2415 09004KT 
     BECMG 2416/2418 26020KT 
     BECMG 2501/2503 26008KT 
     BECMG 2504/2506 11015KT
       
SCTN 240600Z AUTO 14001KT //// R/////// // FEW011 10/09 Q1024
SCCH 240600Z AUTO 23007KT 9999 ///////// 12/08 Q1017
SCIE 240600Z 23007KT CAVOK 11/09 Q1019
TAF SCIE 240405Z 2406/2506 20006KT CAVOK TX22/2418Z TN09/2411Z 
     TEMPO 2408/2412 16004KT 
     BECMG 2416/2418 23010KT 
     TEMPO 2418/2422 23015G25KT 
     BECMG 2501/2503 20006KT
       
SCAT 240600Z AUTO VRB02KT 9999 // ///009 15/12 Q1017
TAF SCAT 240416Z 2406/2506 27004KT 9999 OVC009 TN15/2406Z TX21/2418Z 
     BECMG 2410/2412 34004KT OVC011 
     BECMG 2417/2419 26010KT CAVOK 
     BECMG 2502/2504 21004KT OVC010
       
SCCY 240600Z AUTO VRB01KT //// // ///////// 09/07 Q1023
SCDA 240600Z 17003KT CAVOK 20/14 Q1015
TAF SCDA 240415Z 2406/2506 18004KT CAVOK TN19/2406Z TX23/2418Z 
     BECMG 2408/2410 09004KT 
     BECMG 2414/2416 21014KT 
     BECMG 2503/2505 18004KT
       
SCSE 240600Z 00000KT 9999 BKN008 12/10 Q1015
TAF SCSE 240405Z 2406/2506 12004KT 9999 SCT008 BKN013 TX18/2419Z TN12/2411Z 
     TEMPO 2408/2413 5000 BR BKN008 
     BECMG 2415/2417 28010KT SCT015 
     BECMG 2417/2419 CAVOK 
     BECMG 2501/2503 30004KT SCT012
       
SCTE 240600Z 00000KT CAVOK 06/06 Q1024 NOSIG
TAF COR SCTE 240412Z 2406/2506 19004KT CAVOK TN06/2410Z TX16/2420Z 
     BECMG 2407/2409 4000 BR SCT016 SCT200 
     PROB40 
     TEMPO 2408/2412 VRB02KT 0800 OVC005 
     BECMG 2412/2414 18010KT 9999 NSW SCT020 BKN130 
     BECMG 2415/2417 18016KT CAVOK 
     TEMPO 2416/2421 18017G27KT 9999 FEW025 SCT100 
     BECMG 2501/2503 18011KT 9999 SCT016 
     BECMG 2504/2506 OVC016
       
SCCI 240600Z 29013KT 9999 FEW040 BKN120 11/08 Q1015 NOSIG
TAF SCCI 240430Z 2406/2506 29013KT 9999 FEW040 TN08/2410Z TX13/2418Z 
     BECMG 2412/2414 29018G30KT 
     TEMPO 2415/2421 28025G35KT 
     TEMPO 2421/2503 9000 -SHRA SCT022 BKN030 
     BECMG 2501/2503 24016G30KT
       
SCEL 240600Z 00000KT CAVOK 17/07 Q1016 NOSIG
TAF SCEL 240405Z 2406/2506 VRB02KT CAVOK TX30/2419Z TN11/2411Z 
     TEMPO 2408/2412 7000 NSC 
     BECMG 2415/2417 17008KT 
     BECMG 2421/2423 21013KT 
     BECMG 2501/2503 16005KT
       
SCVD 240600Z AUTO 31002KT CAVOK 04/04 Q1023
SCVM 240600Z 00000KT CAVOK 09/08 Q1016